sensor_id;sensor_type;location;lat;lon;timestamp;P1;durP1;ratioP1;P2;durP2;ratioP2
77449;SDS011;66536;53.150;18.172;2023-11-19T00:01:58;40.60;;;16.90;;
77449;SDS011;66536;53.150;18.172;2023-11-19T00:04:24;44.10;;;17.50;;
77449;SDS011;66536;53.150;18.172;2023-11-19T00:06:51;57.80;;;21.00;;
77449;SDS011;66536;53.150;18.172;2023-11-19T00:09:18;61.20;;;20.80;;
77449;SDS011;66536;53.150;18.172;2023-11-19T00:11:45;43.60;;;17.70;;
77449;SDS011;66536;53.150;18.172;2023-11-19T00:14:12;41.90;;;17.90;;
77449;SDS011;66536;53.150;18.172;2023-11-19T00:16:40;42.00;;;17.50;;
77449;SDS011;66536;53.150;18.172;2023-11-19T00:19:06;39.40;;;16.30;;
77449;SDS011;66536;53.150;18.172;2023-11-19T00:21:35;42.20;;;17.00;;
77449;SDS011;66536;53.150;18.172;2023-11-19T00:24:02;49.30;;;19.60;;
77449;SDS011;66536;53.150;18.172;2023-11-19T00:26:30;52.10;;;21.40;;
77449;SDS011;66536;53.150;18.172;2023-11-19T00:28:57;56.70;;;20.90;;
77449;SDS011;66536;53.150;18.172;2023-11-19T00:31:25;45.30;;;19.60;;
77449;SDS011;66536;53.150;18.172;2023-11-19T00:33:54;46.10;;;18.60;;
77449;SDS011;66536;53.150;18.172;2023-11-19T00:36:23;39.80;;;17.20;;
77449;SDS011;66536;53.150;18.172;2023-11-19T00:38:50;43.00;;;17.80;;
77449;SDS011;66536;53.150;18.172;2023-11-19T00:41:19;46.70;;;18.90;;
77449;SDS011;66536;53.150;18.172;2023-11-19T00:43:46;40.50;;;17.90;;
77449;SDS011;66536;53.150;18.172;2023-11-19T00:46:12;37.20;;;17.30;;
77449;SDS011;66536;53.150;18.172;2023-11-19T00:48:40;40.30;;;17.70;;
77449;SDS011;66536;53.150;18.172;2023-11-19T00:51:07;42.80;;;19.10;;
77449;SDS011;66536;53.150;18.172;2023-11-19T00:53:34;38.10;;;17.80;;
77449;SDS011;66536;53.150;18.172;2023-11-19T00:56:01;40.20;;;16.70;;
77449;SDS011;66536;53.150;18.172;2023-11-19T00:58:28;37.30;;;16.40;;
77449;SDS011;66536;53.150;18.172;2023-11-19T01:00:56;42.00;;;18.50;;
77449;SDS011;66536;53.150;18.172;2023-11-19T01:03:23;46.80;;;19.80;;
77449;SDS011;66536;53.150;18.172;2023-11-19T01:05:50;51.20;;;20.70;;
77449;SDS011;66536;53.150;18.172;2023-11-19T01:08:18;45.00;;;19.10;;
77449;SDS011;66536;53.150;18.172;2023-11-19T01:10:45;43.70;;;19.10;;
77449;SDS011;66536;53.150;18.172;2023-11-19T01:13:12;40.90;;;18.20;;
77449;SDS011;66536;53.150;18.172;2023-11-19T01:15:39;58.20;;;23.00;;
77449;SDS011;66536;53.150;18.172;2023-11-19T01:18:08;76.00;;;26.70;;
77449;SDS011;66536;53.150;18.172;2023-11-19T01:20:36;78.40;;;26.00;;
77449;SDS011;66536;53.150;18.172;2023-11-19T01:23:03;79.20;;;28.40;;
77449;SDS011;66536;53.150;18.172;2023-11-19T01:25:29;74.60;;;28.30;;
77449;SDS011;66536;53.150;18.172;2023-11-19T01:27:56;77.40;;;28.50;;
77449;SDS011;66536;53.150;18.172;2023-11-19T01:30:24;82.10;;;29.30;;
77449;SDS011;66536;53.150;18.172;2023-11-19T01:32:52;82.00;;;30.10;;
77449;SDS011;66536;53.150;18.172;2023-11-19T01:35:18;73.70;;;28.30;;
77449;SDS011;66536;53.150;18.172;2023-11-19T01:37:45;68.30;;;26.30;;
77449;SDS011;66536;53.150;18.172;2023-11-19T01:40:12;70.00;;;26.40;;
77449;SDS011;66536;53.150;18.172;2023-11-19T01:42:39;73.10;;;27.80;;
77449;SDS011;66536;53.150;18.172;2023-11-19T01:45:06;67.10;;;25.40;;
77449;SDS011;66536;53.150;18.172;2023-11-19T01:47:35;57.50;;;23.10;;
77449;SDS011;66536;53.150;18.172;2023-11-19T01:50:03;52.80;;;22.90;;
77449;SDS011;66536;53.150;18.172;2023-11-19T01:52:33;53.90;;;22.40;;
77449;SDS011;66536;53.150;18.172;2023-11-19T01:55:04;61.60;;;23.20;;
77449;SDS011;66536;53.150;18.172;2023-11-19T01:57:31;58.10;;;23.40;;
77449;SDS011;66536;53.150;18.172;2023-11-19T01:59:58;54.80;;;22.50;;
77449;SDS011;66536;53.150;18.172;2023-11-19T02:02:25;53.30;;;21.80;;
77449;SDS011;66536;53.150;18.172;2023-11-19T02:04:52;56.10;;;21.80;;
77449;SDS011;66536;53.150;18.172;2023-11-19T02:07:19;53.10;;;21.90;;
77449;SDS011;66536;53.150;18.172;2023-11-19T02:09:46;53.30;;;22.40;;
77449;SDS011;66536;53.150;18.172;2023-11-19T02:12:13;56.60;;;23.00;;
77449;SDS011;66536;53.150;18.172;2023-11-19T02:14:40;54.40;;;22.10;;
77449;SDS011;66536;53.150;18.172;2023-11-19T02:17:18;55.00;;;21.20;;
77449;SDS011;66536;53.150;18.172;2023-11-19T02:19:53;54.90;;;22.50;;
77449;SDS011;66536;53.150;18.172;2023-11-19T02:22:20;53.80;;;20.10;;
77449;SDS011;66536;53.150;18.172;2023-11-19T02:24:46;56.60;;;22.80;;
77449;SDS011;66536;53.150;18.172;2023-11-19T02:27:24;48.30;;;21.00;;
77449;SDS011;66536;53.150;18.172;2023-11-19T02:29:58;61.20;;;24.10;;
77449;SDS011;66536;53.150;18.172;2023-11-19T02:32:27;65.40;;;25.00;;
77449;SDS011;66536;53.150;18.172;2023-11-19T02:34:55;69.30;;;26.00;;
77449;SDS011;66536;53.150;18.172;2023-11-19T02:37:22;76.60;;;30.10;;
77449;SDS011;66536;53.150;18.172;2023-11-19T02:39:49;78.90;;;29.10;;
77449;SDS011;66536;53.150;18.172;2023-11-19T02:42:16;69.90;;;28.00;;
77449;SDS011;66536;53.150;18.172;2023-11-19T02:44:44;69.60;;;28.70;;
77449;SDS011;66536;53.150;18.172;2023-11-19T02:47:11;75.00;;;28.20;;
77449;SDS011;66536;53.150;18.172;2023-11-19T02:49:38;68.90;;;27.90;;
77449;SDS011;66536;53.150;18.172;2023-11-19T02:52:05;62.10;;;25.50;;
77449;SDS011;66536;53.150;18.172;2023-11-19T02:54:34;63.50;;;27.00;;
77449;SDS011;66536;53.150;18.172;2023-11-19T02:57:01;67.40;;;26.50;;
77449;SDS011;66536;53.150;18.172;2023-11-19T02:59:29;65.80;;;26.00;;
77449;SDS011;66536;53.150;18.172;2023-11-19T03:02:05;58.10;;;23.60;;
77449;SDS011;66536;53.150;18.172;2023-11-19T03:04:34;58.40;;;23.30;;
77449;SDS011;66536;53.150;18.172;2023-11-19T03:07:00;45.90;;;20.50;;
77449;SDS011;66536;53.150;18.172;2023-11-19T03:09:28;46.50;;;19.90;;
77449;SDS011;66536;53.150;18.172;2023-11-19T03:11:55;45.20;;;20.10;;
77449;SDS011;66536;53.150;18.172;2023-11-19T03:14:22;43.80;;;18.70;;
77449;SDS011;66536;53.150;18.172;2023-11-19T03:16:49;46.00;;;20.40;;
77449;SDS011;66536;53.150;18.172;2023-11-19T03:19:17;45.90;;;19.60;;
77449;SDS011;66536;53.150;18.172;2023-11-19T03:21:44;47.00;;;20.00;;
77449;SDS011;66536;53.150;18.172;2023-11-19T03:24:14;43.90;;;18.30;;
77449;SDS011;66536;53.150;18.172;2023-11-19T03:26:41;43.50;;;19.40;;
77449;SDS011;66536;53.150;18.172;2023-11-19T03:29:09;43.80;;;18.90;;
77449;SDS011;66536;53.150;18.172;2023-11-19T03:31:36;46.20;;;19.10;;
77449;SDS011;66536;53.150;18.172;2023-11-19T03:34:03;50.60;;;20.80;;
77449;SDS011;66536;53.150;18.172;2023-11-19T03:36:32;49.30;;;20.00;;
77449;SDS011;66536;53.150;18.172;2023-11-19T03:39:00;45.40;;;20.00;;
77449;SDS011;66536;53.150;18.172;2023-11-19T03:41:26;50.50;;;20.40;;
77449;SDS011;66536;53.150;18.172;2023-11-19T03:43:53;49.20;;;20.20;;
77449;SDS011;66536;53.150;18.172;2023-11-19T03:46:20;49.80;;;19.80;;
77449;SDS011;66536;53.150;18.172;2023-11-19T03:48:47;47.40;;;20.40;;
77449;SDS011;66536;53.150;18.172;2023-11-19T03:51:15;40.80;;;18.40;;
77449;SDS011;66536;53.150;18.172;2023-11-19T03:53:45;48.70;;;20.00;;
77449;SDS011;66536;53.150;18.172;2023-11-19T03:56:12;53.40;;;19.70;;
77449;SDS011;66536;53.150;18.172;2023-11-19T03:58:39;45.40;;;19.90;;
77449;SDS011;66536;53.150;18.172;2023-11-19T04:01:10;44.40;;;20.00;;
77449;SDS011;66536;53.150;18.172;2023-11-19T04:03:39;42.00;;;19.80;;
77449;SDS011;66536;53.150;18.172;2023-11-19T04:06:06;39.80;;;18.20;;
77449;SDS011;66536;53.150;18.172;2023-11-19T04:08:33;44.40;;;19.00;;
77449;SDS011;66536;53.150;18.172;2023-11-19T04:11:02;44.80;;;19.40;;
77449;SDS011;66536;53.150;18.172;2023-11-19T04:13:30;46.00;;;20.00;;
77449;SDS011;66536;53.150;18.172;2023-11-19T04:15:57;50.00;;;19.60;;
77449;SDS011;66536;53.150;18.172;2023-11-19T04:18:23;44.20;;;18.80;;
77449;SDS011;66536;53.150;18.172;2023-11-19T04:20:50;42.60;;;18.60;;
77449;SDS011;66536;53.150;18.172;2023-11-19T04:23:17;45.90;;;19.70;;
77449;SDS011;66536;53.150;18.172;2023-11-19T04:25:44;45.70;;;20.30;;
77449;SDS011;66536;53.150;18.172;2023-11-19T04:28:11;55.90;;;20.90;;
77449;SDS011;66536;53.150;18.172;2023-11-19T04:30:37;47.80;;;20.60;;
77449;SDS011;66536;53.150;18.172;2023-11-19T04:33:04;50.20;;;20.00;;
77449;SDS011;66536;53.150;18.172;2023-11-19T04:35:32;46.60;;;20.10;;
77449;SDS011;66536;53.150;18.172;2023-11-19T04:37:58;45.50;;;20.50;;
77449;SDS011;66536;53.150;18.172;2023-11-19T04:40:25;46.00;;;19.10;;
77449;SDS011;66536;53.150;18.172;2023-11-19T04:42:52;41.90;;;18.70;;
77449;SDS011;66536;53.150;18.172;2023-11-19T04:45:19;48.20;;;20.70;;
77449;SDS011;66536;53.150;18.172;2023-11-19T04:47:46;42.70;;;18.50;;
77449;SDS011;66536;53.150;18.172;2023-11-19T04:50:13;44.10;;;17.80;;
77449;SDS011;66536;53.150;18.172;2023-11-19T04:52:40;44.50;;;18.30;;
77449;SDS011;66536;53.150;18.172;2023-11-19T04:55:06;41.40;;;18.20;;
77449;SDS011;66536;53.150;18.172;2023-11-19T04:57:34;40.50;;;18.10;;
77449;SDS011;66536;53.150;18.172;2023-11-19T05:00:00;44.80;;;17.60;;
77449;SDS011;66536;53.150;18.172;2023-11-19T05:02:27;45.40;;;18.30;;
77449;SDS011;66536;53.150;18.172;2023-11-19T05:04:54;46.80;;;17.70;;
77449;SDS011;66536;53.150;18.172;2023-11-19T05:07:21;43.00;;;18.20;;
77449;SDS011;66536;53.150;18.172;2023-11-19T05:09:48;41.70;;;17.40;;
77449;SDS011;66536;53.150;18.172;2023-11-19T05:12:14;39.60;;;17.30;;
77449;SDS011;66536;53.150;18.172;2023-11-19T05:14:41;41.70;;;18.00;;
77449;SDS011;66536;53.150;18.172;2023-11-19T05:17:16;43.60;;;17.60;;
77449;SDS011;66536;53.150;18.172;2023-11-19T05:19:45;42.60;;;18.00;;
77449;SDS011;66536;53.150;18.172;2023-11-19T05:22:12;40.40;;;17.60;;
77449;SDS011;66536;53.150;18.172;2023-11-19T05:24:39;41.00;;;17.80;;
77449;SDS011;66536;53.150;18.172;2023-11-19T05:27:07;35.50;;;16.00;;
77449;SDS011;66536;53.150;18.172;2023-11-19T05:29:34;38.50;;;16.60;;
77449;SDS011;66536;53.150;18.172;2023-11-19T05:32:01;40.30;;;16.40;;
77449;SDS011;66536;53.150;18.172;2023-11-19T05:34:28;37.40;;;15.80;;
77449;SDS011;66536;53.150;18.172;2023-11-19T05:36:55;39.40;;;16.10;;
77449;SDS011;66536;53.150;18.172;2023-11-19T05:39:22;40.00;;;16.90;;
77449;SDS011;66536;53.150;18.172;2023-11-19T05:41:49;32.50;;;14.80;;
77449;SDS011;66536;53.150;18.172;2023-11-19T05:44:16;34.30;;;14.20;;
77449;SDS011;66536;53.150;18.172;2023-11-19T05:46:45;34.60;;;15.20;;
77449;SDS011;66536;53.150;18.172;2023-11-19T05:49:12;35.30;;;15.40;;
77449;SDS011;66536;53.150;18.172;2023-11-19T05:51:40;35.60;;;14.70;;
77449;SDS011;66536;53.150;18.172;2023-11-19T05:54:08;30.50;;;15.10;;
77449;SDS011;66536;53.150;18.172;2023-11-19T05:56:36;34.20;;;14.90;;
77449;SDS011;66536;53.150;18.172;2023-11-19T05:59:04;34.70;;;13.60;;
77449;SDS011;66536;53.150;18.172;2023-11-19T06:01:34;27.00;;;13.50;;
77449;SDS011;66536;53.150;18.172;2023-11-19T06:04:01;26.10;;;13.40;;
77449;SDS011;66536;53.150;18.172;2023-11-19T06:06:28;28.20;;;13.20;;
77449;SDS011;66536;53.150;18.172;2023-11-19T06:08:55;32.60;;;13.20;;
77449;SDS011;66536;53.150;18.172;2023-11-19T06:11:22;25.70;;;12.40;;
77449;SDS011;66536;53.150;18.172;2023-11-19T06:13:49;28.30;;;12.70;;
77449;SDS011;66536;53.150;18.172;2023-11-19T06:16:17;27.60;;;12.80;;
77449;SDS011;66536;53.150;18.172;2023-11-19T06:18:44;25.50;;;12.00;;
77449;SDS011;66536;53.150;18.172;2023-11-19T06:21:11;27.80;;;13.00;;
77449;SDS011;66536;53.150;18.172;2023-11-19T06:23:38;27.60;;;13.10;;
77449;SDS011;66536;53.150;18.172;2023-11-19T06:26:05;25.60;;;12.10;;
77449;SDS011;66536;53.150;18.172;2023-11-19T06:28:32;25.70;;;12.10;;
77449;SDS011;66536;53.150;18.172;2023-11-19T06:30:59;23.90;;;11.70;;
77449;SDS011;66536;53.150;18.172;2023-11-19T06:33:25;23.00;;;11.50;;
77449;SDS011;66536;53.150;18.172;2023-11-19T06:35:53;29.10;;;12.70;;
77449;SDS011;66536;53.150;18.172;2023-11-19T06:38:20;25.20;;;11.60;;
77449;SDS011;66536;53.150;18.172;2023-11-19T06:40:47;24.50;;;11.80;;
77449;SDS011;66536;53.150;18.172;2023-11-19T06:43:14;25.10;;;11.50;;
77449;SDS011;66536;53.150;18.172;2023-11-19T06:45:41;24.70;;;11.70;;
77449;SDS011;66536;53.150;18.172;2023-11-19T06:48:08;24.70;;;11.20;;
77449;SDS011;66536;53.150;18.172;2023-11-19T06:50:35;26.60;;;11.60;;
77449;SDS011;66536;53.150;18.172;2023-11-19T06:53:02;26.40;;;11.70;;
77449;SDS011;66536;53.150;18.172;2023-11-19T06:55:28;25.90;;;11.80;;
77449;SDS011;66536;53.150;18.172;2023-11-19T06:57:55;25.50;;;11.60;;
77449;SDS011;66536;53.150;18.172;2023-11-19T07:00:22;24.30;;;11.30;;
77449;SDS011;66536;53.150;18.172;2023-11-19T07:02:49;21.50;;;10.40;;
77449;SDS011;66536;53.150;18.172;2023-11-19T07:05:17;21.50;;;11.10;;
77449;SDS011;66536;53.150;18.172;2023-11-19T07:07:44;27.60;;;11.10;;
77449;SDS011;66536;53.150;18.172;2023-11-19T07:10:13;23.90;;;10.80;;
77449;SDS011;66536;53.150;18.172;2023-11-19T07:12:39;24.20;;;10.90;;
77449;SDS011;66536;53.150;18.172;2023-11-19T07:15:07;20.70;;;10.50;;
77449;SDS011;66536;53.150;18.172;2023-11-19T07:17:35;24.00;;;10.80;;
77449;SDS011;66536;53.150;18.172;2023-11-19T07:20:02;21.40;;;11.00;;
77449;SDS011;66536;53.150;18.172;2023-11-19T07:22:30;22.40;;;10.60;;
77449;SDS011;66536;53.150;18.172;2023-11-19T07:24:57;23.40;;;10.80;;
77449;SDS011;66536;53.150;18.172;2023-11-19T07:27:24;21.10;;;10.70;;
77449;SDS011;66536;53.150;18.172;2023-11-19T07:29:51;22.50;;;11.10;;
77449;SDS011;66536;53.150;18.172;2023-11-19T07:32:18;22.30;;;10.30;;
77449;SDS011;66536;53.150;18.172;2023-11-19T07:34:47;25.60;;;11.30;;
77449;SDS011;66536;53.150;18.172;2023-11-19T07:37:14;20.20;;;10.80;;
77449;SDS011;66536;53.150;18.172;2023-11-19T07:39:40;23.80;;;11.70;;
77449;SDS011;66536;53.150;18.172;2023-11-19T07:42:07;23.90;;;10.90;;
77449;SDS011;66536;53.150;18.172;2023-11-19T07:44:35;21.50;;;10.60;;
77449;SDS011;66536;53.150;18.172;2023-11-19T07:47:03;21.90;;;11.10;;
77449;SDS011;66536;53.150;18.172;2023-11-19T07:49:31;23.30;;;11.00;;
77449;SDS011;66536;53.150;18.172;2023-11-19T07:51:57;23.60;;;12.20;;
77449;SDS011;66536;53.150;18.172;2023-11-19T07:54:24;23.20;;;11.70;;
77449;SDS011;66536;53.150;18.172;2023-11-19T07:56:51;23.80;;;10.90;;
77449;SDS011;66536;53.150;18.172;2023-11-19T07:59:18;21.00;;;10.50;;
77449;SDS011;66536;53.150;18.172;2023-11-19T08:01:45;23.30;;;11.50;;
77449;SDS011;66536;53.150;18.172;2023-11-19T08:04:12;22.40;;;10.80;;
77449;SDS011;66536;53.150;18.172;2023-11-19T08:06:38;26.70;;;11.30;;
77449;SDS011;66536;53.150;18.172;2023-11-19T08:09:06;22.80;;;11.00;;
77449;SDS011;66536;53.150;18.172;2023-11-19T08:11:33;23.90;;;11.30;;
77449;SDS011;66536;53.150;18.172;2023-11-19T08:14:00;22.30;;;11.00;;
77449;SDS011;66536;53.150;18.172;2023-11-19T08:16:26;23.80;;;11.00;;
77449;SDS011;66536;53.150;18.172;2023-11-19T08:18:53;22.90;;;11.80;;
77449;SDS011;66536;53.150;18.172;2023-11-19T08:21:20;23.30;;;11.40;;
77449;SDS011;66536;53.150;18.172;2023-11-19T08:23:49;25.70;;;11.70;;
77449;SDS011;66536;53.150;18.172;2023-11-19T08:26:15;25.40;;;11.40;;
77449;SDS011;66536;53.150;18.172;2023-11-19T08:28:42;24.40;;;11.90;;
77449;SDS011;66536;53.150;18.172;2023-11-19T08:31:09;26.30;;;11.90;;
77449;SDS011;66536;53.150;18.172;2023-11-19T08:33:36;23.10;;;11.20;;
77449;SDS011;66536;53.150;18.172;2023-11-19T08:36:03;28.80;;;13.00;;
77449;SDS011;66536;53.150;18.172;2023-11-19T08:38:30;24.80;;;12.00;;
77449;SDS011;66536;53.150;18.172;2023-11-19T08:40:57;25.10;;;11.90;;
77449;SDS011;66536;53.150;18.172;2023-11-19T08:43:26;24.60;;;12.50;;
77449;SDS011;66536;53.150;18.172;2023-11-19T08:45:53;29.00;;;12.90;;
77449;SDS011;66536;53.150;18.172;2023-11-19T08:48:20;29.30;;;12.90;;
77449;SDS011;66536;53.150;18.172;2023-11-19T08:50:47;23.60;;;12.20;;
77449;SDS011;66536;53.150;18.172;2023-11-19T08:53:14;30.40;;;13.50;;
77449;SDS011;66536;53.150;18.172;2023-11-19T08:55:41;25.00;;;12.30;;
77449;SDS011;66536;53.150;18.172;2023-11-19T08:58:08;26.90;;;13.60;;
77449;SDS011;66536;53.150;18.172;2023-11-19T09:00:35;26.60;;;13.00;;
77449;SDS011;66536;53.150;18.172;2023-11-19T09:03:02;22.60;;;12.00;;
77449;SDS011;66536;53.150;18.172;2023-11-19T09:05:29;28.70;;;13.90;;
77449;SDS011;66536;53.150;18.172;2023-11-19T09:07:56;29.70;;;13.70;;
77449;SDS011;66536;53.150;18.172;2023-11-19T09:10:23;31.50;;;13.60;;
77449;SDS011;66536;53.150;18.172;2023-11-19T09:12:50;26.90;;;13.10;;
77449;SDS011;66536;53.150;18.172;2023-11-19T09:15:16;26.40;;;13.20;;
77449;SDS011;66536;53.150;18.172;2023-11-19T09:17:43;28.60;;;13.50;;
77449;SDS011;66536;53.150;18.172;2023-11-19T09:20:11;28.40;;;13.50;;
77449;SDS011;66536;53.150;18.172;2023-11-19T09:22:43;25.00;;;12.70;;
77449;SDS011;66536;53.150;18.172;2023-11-19T09:25:10;27.20;;;12.60;;
77449;SDS011;66536;53.150;18.172;2023-11-19T09:27:37;26.20;;;13.30;;
77449;SDS011;66536;53.150;18.172;2023-11-19T09:30:04;27.90;;;13.30;;
77449;SDS011;66536;53.150;18.172;2023-11-19T09:32:31;29.70;;;13.90;;
77449;SDS011;66536;53.150;18.172;2023-11-19T09:34:58;28.40;;;13.70;;
77449;SDS011;66536;53.150;18.172;2023-11-19T09:37:25;30.60;;;14.60;;
77449;SDS011;66536;53.150;18.172;2023-11-19T09:39:51;34.70;;;16.20;;
77449;SDS011;66536;53.150;18.172;2023-11-19T09:42:19;28.00;;;14.10;;
77449;SDS011;66536;53.150;18.172;2023-11-19T09:44:47;32.20;;;15.00;;
77449;SDS011;66536;53.150;18.172;2023-11-19T09:47:15;30.00;;;14.60;;
77449;SDS011;66536;53.150;18.172;2023-11-19T09:49:45;30.30;;;14.80;;
77449;SDS011;66536;53.150;18.172;2023-11-19T09:52:14;31.60;;;15.30;;
77449;SDS011;66536;53.150;18.172;2023-11-19T09:54:40;33.20;;;15.70;;
77449;SDS011;66536;53.150;18.172;2023-11-19T09:57:07;28.60;;;15.20;;
77449;SDS011;66536;53.150;18.172;2023-11-19T09:59:35;38.10;;;17.70;;
77449;SDS011;66536;53.150;18.172;2023-11-19T10:02:05;32.50;;;15.40;;
77449;SDS011;66536;53.150;18.172;2023-11-19T10:04:33;37.80;;;16.10;;
77449;SDS011;66536;53.150;18.172;2023-11-19T10:07:03;35.60;;;16.80;;
77449;SDS011;66536;53.150;18.172;2023-11-19T10:09:30;34.80;;;16.70;;
77449;SDS011;66536;53.150;18.172;2023-11-19T10:11:57;33.10;;;16.10;;
77449;SDS011;66536;53.150;18.172;2023-11-19T10:14:23;29.80;;;15.10;;
77449;SDS011;66536;53.150;18.172;2023-11-19T10:16:50;31.60;;;15.60;;
77449;SDS011;66536;53.150;18.172;2023-11-19T10:19:19;32.20;;;15.50;;
77449;SDS011;66536;53.150;18.172;2023-11-19T10:21:47;29.40;;;14.70;;
77449;SDS011;66536;53.150;18.172;2023-11-19T10:24:14;32.40;;;15.80;;
77449;SDS011;66536;53.150;18.172;2023-11-19T10:26:41;31.80;;;16.10;;
77449;SDS011;66536;53.150;18.172;2023-11-19T10:29:09;38.80;;;16.40;;
77449;SDS011;66536;53.150;18.172;2023-11-19T10:31:40;32.80;;;15.60;;
77449;SDS011;66536;53.150;18.172;2023-11-19T10:34:11;29.90;;;14.10;;
77449;SDS011;66536;53.150;18.172;2023-11-19T10:36:51;30.70;;;14.30;;
77449;SDS011;66536;53.150;18.172;2023-11-19T10:39:18;31.70;;;15.10;;
77449;SDS011;66536;53.150;18.172;2023-11-19T10:41:45;31.40;;;15.10;;
77449;SDS011;66536;53.150;18.172;2023-11-19T10:44:12;32.40;;;15.30;;
77449;SDS011;66536;53.150;18.172;2023-11-19T10:46:39;36.90;;;14.90;;
77449;SDS011;66536;53.150;18.172;2023-11-19T10:49:07;32.80;;;15.40;;
77449;SDS011;66536;53.150;18.172;2023-11-19T10:51:35;34.20;;;15.90;;
77449;SDS011;66536;53.150;18.172;2023-11-19T10:54:03;41.10;;;17.60;;
77449;SDS011;66536;53.150;18.172;2023-11-19T10:56:32;32.80;;;15.50;;
77449;SDS011;66536;53.150;18.172;2023-11-19T10:59:00;36.70;;;16.90;;
77449;SDS011;66536;53.150;18.172;2023-11-19T11:01:32;36.10;;;16.60;;
77449;SDS011;66536;53.150;18.172;2023-11-19T11:04:12;35.00;;;17.10;;
77449;SDS011;66536;53.150;18.172;2023-11-19T11:06:41;34.00;;;16.10;;
77449;SDS011;66536;53.150;18.172;2023-11-19T11:09:09;35.20;;;16.10;;
77449;SDS011;66536;53.150;18.172;2023-11-19T11:11:40;35.20;;;16.70;;
77449;SDS011;66536;53.150;18.172;2023-11-19T11:14:11;37.50;;;16.00;;
77449;SDS011;66536;53.150;18.172;2023-11-19T11:16:43;38.40;;;16.60;;
77449;SDS011;66536;53.150;18.172;2023-11-19T11:19:11;41.10;;;17.80;;
77449;SDS011;66536;53.150;18.172;2023-11-19T11:21:40;39.30;;;16.50;;
77449;SDS011;66536;53.150;18.172;2023-11-19T11:24:16;35.10;;;16.20;;
77449;SDS011;66536;53.150;18.172;2023-11-19T11:27:00;34.90;;;15.60;;
77449;SDS011;66536;53.150;18.172;2023-11-19T11:29:41;34.40;;;15.80;;
77449;SDS011;66536;53.150;18.172;2023-11-19T11:35:12;39.70;;;16.80;;
77449;SDS011;66536;53.150;18.172;2023-11-19T11:37:57;51.40;;;21.40;;
77449;SDS011;66536;53.150;18.172;2023-11-19T11:40:29;48.50;;;21.00;;
77449;SDS011;66536;53.150;18.172;2023-11-19T11:42:57;37.90;;;16.90;;
77449;SDS011;66536;53.150;18.172;2023-11-19T11:50:50;36.90;;;16.40;;
77449;SDS011;66536;53.150;18.172;2023-11-19T11:53:19;38.70;;;16.90;;
77449;SDS011;66536;53.150;18.172;2023-11-19T11:55:53;40.30;;;17.30;;
77449;SDS011;66536;53.150;18.172;2023-11-19T11:58:26;46.30;;;19.20;;
77449;SDS011;66536;53.150;18.172;2023-11-19T12:00:57;41.40;;;18.20;;
77449;SDS011;66536;53.150;18.172;2023-11-19T12:03:27;41.20;;;16.20;;
77449;SDS011;66536;53.150;18.172;2023-11-19T12:05:56;42.20;;;17.60;;
77449;SDS011;66536;53.150;18.172;2023-11-19T12:08:25;39.40;;;17.20;;
77449;SDS011;66536;53.150;18.172;2023-11-19T12:10:54;41.20;;;16.70;;
77449;SDS011;66536;53.150;18.172;2023-11-19T12:13:47;43.60;;;17.70;;
77449;SDS011;66536;53.150;18.172;2023-11-19T12:16:15;41.90;;;17.70;;
77449;SDS011;66536;53.150;18.172;2023-11-19T12:18:42;42.30;;;17.60;;
77449;SDS011;66536;53.150;18.172;2023-11-19T12:21:09;43.80;;;20.20;;
77449;SDS011;66536;53.150;18.172;2023-11-19T12:23:44;39.80;;;16.80;;
77449;SDS011;66536;53.150;18.172;2023-11-19T12:26:30;37.60;;;16.40;;
77449;SDS011;66536;53.150;18.172;2023-11-19T12:28:58;44.30;;;18.90;;
77449;SDS011;66536;53.150;18.172;2023-11-19T12:31:26;57.20;;;21.70;;
77449;SDS011;66536;53.150;18.172;2023-11-19T12:33:53;49.10;;;20.50;;
77449;SDS011;66536;53.150;18.172;2023-11-19T12:36:20;40.30;;;16.70;;
77449;SDS011;66536;53.150;18.172;2023-11-19T12:38:47;41.70;;;17.90;;
77449;SDS011;66536;53.150;18.172;2023-11-19T12:41:14;44.50;;;19.80;;
77449;SDS011;66536;53.150;18.172;2023-11-19T12:43:46;47.20;;;20.80;;
77449;SDS011;66536;53.150;18.172;2023-11-19T12:46:18;41.30;;;18.10;;
77449;SDS011;66536;53.150;18.172;2023-11-19T12:48:46;59.40;;;23.10;;
77449;SDS011;66536;53.150;18.172;2023-11-19T12:51:14;48.10;;;22.20;;
77449;SDS011;66536;53.150;18.172;2023-11-19T12:53:49;40.60;;;18.40;;
77449;SDS011;66536;53.150;18.172;2023-11-19T12:56:23;38.50;;;16.80;;
77449;SDS011;66536;53.150;18.172;2023-11-19T12:58:51;42.20;;;17.80;;
77449;SDS011;66536;53.150;18.172;2023-11-19T13:01:18;40.60;;;17.50;;
77449;SDS011;66536;53.150;18.172;2023-11-19T13:03:46;39.70;;;16.50;;
77449;SDS011;66536;53.150;18.172;2023-11-19T13:06:17;42.90;;;19.50;;
77449;SDS011;66536;53.150;18.172;2023-11-19T13:08:48;39.00;;;18.90;;
77449;SDS011;66536;53.150;18.172;2023-11-19T13:14:01;36.30;;;16.60;;
77449;SDS011;66536;53.150;18.172;2023-11-19T13:16:36;35.10;;;16.50;;
77449;SDS011;66536;53.150;18.172;2023-11-19T13:19:03;35.60;;;16.10;;
77449;SDS011;66536;53.150;18.172;2023-11-19T13:21:31;46.30;;;19.50;;
77449;SDS011;66536;53.150;18.172;2023-11-19T13:23:58;48.40;;;20.20;;
77449;SDS011;66536;53.150;18.172;2023-11-19T13:26:25;50.50;;;21.00;;
77449;SDS011;66536;53.150;18.172;2023-11-19T13:28:51;43.00;;;18.60;;
77449;SDS011;66536;53.150;18.172;2023-11-19T13:31:18;45.20;;;22.10;;
77449;SDS011;66536;53.150;18.172;2023-11-19T13:33:45;38.70;;;17.80;;
77449;SDS011;66536;53.150;18.172;2023-11-19T13:36:12;35.10;;;16.00;;
77449;SDS011;66536;53.150;18.172;2023-11-19T13:38:38;30.80;;;14.50;;
77449;SDS011;66536;53.150;18.172;2023-11-19T13:41:07;33.60;;;15.10;;
77449;SDS011;66536;53.150;18.172;2023-11-19T13:43:37;32.50;;;14.70;;
77449;SDS011;66536;53.150;18.172;2023-11-19T13:46:04;33.20;;;14.60;;
77449;SDS011;66536;53.150;18.172;2023-11-19T13:48:31;32.90;;;15.80;;
77449;SDS011;66536;53.150;18.172;2023-11-19T13:50:58;35.80;;;15.70;;
77449;SDS011;66536;53.150;18.172;2023-11-19T13:53:26;35.00;;;14.70;;
77449;SDS011;66536;53.150;18.172;2023-11-19T13:55:53;38.50;;;16.50;;
77449;SDS011;66536;53.150;18.172;2023-11-19T13:58:19;35.50;;;15.60;;
77449;SDS011;66536;53.150;18.172;2023-11-19T14:00:46;32.20;;;14.70;;
77449;SDS011;66536;53.150;18.172;2023-11-19T14:03:13;32.80;;;15.40;;
77449;SDS011;66536;53.150;18.172;2023-11-19T14:05:40;35.40;;;14.00;;
77449;SDS011;66536;53.150;18.172;2023-11-19T14:08:08;36.20;;;15.50;;
77449;SDS011;66536;53.150;18.172;2023-11-19T14:10:38;30.30;;;13.90;;
77449;SDS011;66536;53.150;18.172;2023-11-19T14:13:06;34.10;;;14.60;;
77449;SDS011;66536;53.150;18.172;2023-11-19T14:15:34;31.30;;;14.40;;
77449;SDS011;66536;53.150;18.172;2023-11-19T14:18:02;31.50;;;13.90;;
77449;SDS011;66536;53.150;18.172;2023-11-19T14:20:29;31.80;;;13.90;;
77449;SDS011;66536;53.150;18.172;2023-11-19T14:22:56;29.30;;;12.70;;
77449;SDS011;66536;53.150;18.172;2023-11-19T14:25:23;36.40;;;15.00;;